RA727 VNLK-VNLK
Flight info
| Callsign | RA727 |
|---|---|
| Flight time | 0h 2m |
| Altitude | 12500 |
| Route | DCT |
| Aircraft | DA62/L-SDFGRY/C |
Departure
| Time | 2026-04-06 14:51 |
|---|---|
| Airport | Tenzing-Hillary Airport (VNLK) |
Arrival
| Time | 2026-04-06 14:53 |
|---|---|
| Airport | Tenzing-Hillary Airport (VNLK) |
| Time | Latitude | Longitude | Altitude | Speed | Heading |
|---|---|---|---|---|---|
| 2026-04-06 14:25 | 27.68727 | 86.73162 | 9412 ft | 0 kts | 59° |
| 2026-04-06 14:27 | 27.68726 | 86.73161 | 9412 ft | 0 kts | 95° |
| 2026-04-06 14:27 | 27.68732 | 86.73155 | 9410 ft | 2 kts | 126° |
| 2026-04-06 14:28 | 27.68733 | 86.73148 | 9410 ft | 0 kts | 62° |
| 2026-04-06 14:32 | 27.68763 | 86.73157 | 9410 ft | 3 kts | 337° |
| 2026-04-06 14:32 | 27.68738 | 86.73074 | 9377 ft | 39 kts | 238° |
| 2026-04-06 14:32 | 27.68457 | 86.72520 | 9250 ft | 111 kts | 242° |
| 2026-04-06 14:33 | 27.68322 | 86.71645 | 9450 ft | 130 kts | 255° |
| 2026-04-06 14:33 | 27.67641 | 86.70802 | 9209 ft | 162 kts | 210° |
| 2026-04-06 14:33 | 27.66614 | 86.70732 | 9236 ft | 141 kts | 158° |
| 2026-04-06 14:33 | 27.65762 | 86.71137 | 9320 ft | 134 kts | 158° |
| 2026-04-06 14:34 | 27.64918 | 86.71570 | 9534 ft | 132 kts | 156° |
| 2026-04-06 14:34 | 27.64405 | 86.71146 | 9457 ft | 145 kts | 307° |
| 2026-04-06 14:34 | 27.65360 | 86.70547 | 9335 ft | 160 kts | 347° |
| 2026-04-06 14:34 | 27.66480 | 86.70610 | 9178 ft | 161 kts | 14° |
| 2026-04-06 14:35 | 27.67431 | 86.71068 | 9119 ft | 147 kts | 33° |
| 2026-04-06 14:35 | 27.68207 | 86.71940 | 9090 ft | 166 kts | 62° |
| 2026-04-06 14:35 | 27.68672 | 86.72945 | 9308 ft | 85 kts | 58° |
| 2026-04-06 14:35 | 27.68791 | 86.73173 | 9414 ft | 0 kts | 65° |
| 2026-04-06 14:36 | 27.68785 | 86.73164 | 9413 ft | 3 kts | 40° |
| 2026-04-06 14:36 | 27.68762 | 86.73157 | 9408 ft | 3 kts | 5° |
| 2026-04-06 14:37 | 27.68745 | 86.73148 | 9410 ft | 3 kts | 47° |
| 2026-04-06 14:37 | 27.68741 | 86.73142 | 9407 ft | 0 kts | 56° |
| 2026-04-06 14:40 | 27.68742 | 86.73144 | 9408 ft | 0 kts | 56° |
| 2026-04-06 14:40 | 27.68776 | 86.73141 | 9410 ft | 6 kts | 281° |
| 2026-04-06 14:40 | 27.68672 | 86.72945 | 9308 ft | 69 kts | 240° |
| 2026-04-06 14:40 | 27.68277 | 86.72283 | 9224 ft | 123 kts | 216° |
| 2026-04-06 14:41 | 27.67439 | 86.71866 | 9372 ft | 144 kts | 205° |
| 2026-04-06 14:41 | 27.66479 | 86.71335 | 9404 ft | 166 kts | 206° |
| 2026-04-06 14:41 | 27.65333 | 86.71013 | 9462 ft | 166 kts | 160° |
| 2026-04-06 14:41 | 27.64393 | 86.71492 | 9576 ft | 155 kts | 217° |
| 2026-04-06 14:42 | 27.64873 | 86.70589 | 9248 ft | 169 kts | 336° |
| 2026-04-06 14:42 | 27.65992 | 86.70437 | 9196 ft | 164 kts | 5° |
| 2026-04-06 14:42 | 27.67066 | 86.70649 | 9174 ft | 150 kts | 18° |
| 2026-04-06 14:42 | 27.67662 | 86.71004 | 9180 ft | 140 kts | 41° |
| 2026-04-06 14:43 | 27.68301 | 86.72201 | 9109 ft | 130 kts | 63° |
| 2026-04-06 14:43 | 27.68583 | 86.72764 | 9219 ft | 103 kts | 59° |
| 2026-04-06 14:43 | 27.68774 | 86.73137 | 9407 ft | 23 kts | 58° |
| 2026-04-06 14:43 | 27.68798 | 86.73181 | 9416 ft | 0 kts | 61° |
| 2026-04-06 14:44 | 27.68791 | 86.73169 | 9415 ft | 5 kts | 46° |
| 2026-04-06 14:44 | 27.68759 | 86.73157 | 9408 ft | 5 kts | 23° |
| 2026-04-06 14:45 | 27.68743 | 86.73141 | 9409 ft | 0 kts | 56° |
| 2026-04-06 14:48 | 27.68770 | 86.73155 | 9411 ft | 7 kts | 330° |
| 2026-04-06 14:48 | 27.68770 | 86.73122 | 9401 ft | 0 kts | 232° |
| 2026-04-06 14:48 | 27.68766 | 86.73117 | 9397 ft | 11 kts | 234° |
| 2026-04-06 14:48 | 27.68554 | 86.72750 | 9250 ft | 96 kts | 234° |
| 2026-04-06 14:49 | 27.67914 | 86.72295 | 9330 ft | 124 kts | 188° |
| 2026-04-06 14:49 | 27.67013 | 86.72027 | 9504 ft | 146 kts | 207° |
| 2026-04-06 14:49 | 27.66087 | 86.71414 | 9580 ft | 162 kts | 207° |
| 2026-04-06 14:49 | 27.65019 | 86.71404 | 9686 ft | 167 kts | 137° |
| 2026-04-06 14:50 | 27.64234 | 86.71647 | 9584 ft | 165 kts | 261° |
| 2026-04-06 14:50 | 27.65145 | 86.70847 | 9266 ft | 184 kts | 354° |
| 2026-04-06 14:50 | 27.66366 | 86.70786 | 9439 ft | 164 kts | 9° |
| 2026-04-06 14:50 | 27.67425 | 86.71039 | 9762 ft | 137 kts | 22° |
| 2026-04-06 14:51 | 27.68309 | 86.71432 | 9967 ft | 143 kts | 21° |
| 2026-04-06 14:51 | 27.69231 | 86.71747 | 9989 ft | 147 kts | 319° |
| 2026-04-06 14:51 | 27.68810 | 86.71062 | 9291 ft | 176 kts | 141° |
| 2026-04-06 14:51 | 27.68680 | 86.72362 | 9468 ft | 148 kts | 110° |
| 2026-04-06 14:52 | 27.67935 | 86.72722 | 9672 ft | 144 kts | 210° |
| 2026-04-06 14:52 | 27.67089 | 86.71919 | 9289 ft | 170 kts | 219° |
| 2026-04-06 14:52 | 27.66659 | 86.70972 | 9297 ft | 158 kts | 327° |
| 2026-04-06 14:52 | 27.67630 | 86.71358 | 9212 ft | 154 kts | 36° |
| 2026-04-06 14:53 | 27.68325 | 86.72236 | 9130 ft | 145 kts | 63° |
| 2026-04-06 14:53 | 27.68721 | 86.73033 | 9354 ft | 52 kts | 59° |
| 2026-04-06 14:53 | 27.68778 | 86.73151 | 9410 ft | 2 kts | 87° |
| 2026-04-06 14:53 | 27.68755 | 86.73164 | 9409 ft | 6 kts | 217° |
| 2026-04-06 14:54 | 27.68741 | 86.73138 | 9412 ft | 0 kts | 240° |
| 2026-04-06 14:55 | 27.68740 | 86.73136 | 9412 ft | 0 kts | 242° |